createdAt,value
2023-01-13T00:00:31.033Z,5.87
2023-01-13T00:02:59.683Z,5.73
2023-01-13T00:05:28.402Z,5.88
2023-01-13T00:07:56.382Z,5.73
2023-01-13T00:10:25.768Z,5.81
2023-01-13T00:12:53.887Z,5.81
2023-01-13T00:15:23.072Z,5.86
2023-01-13T00:17:51.027Z,5.40
2023-01-13T00:20:19.189Z,6.11
2023-01-13T00:22:47.274Z,6.04
2023-01-13T00:25:15.168Z,5.87
2023-01-13T00:27:44.480Z,6.00
2023-01-13T00:30:13.203Z,5.96
2023-01-13T00:32:41.283Z,6.04
2023-01-13T00:35:10.227Z,5.92
2023-01-13T00:37:38.745Z,5.98
2023-01-13T00:40:07.718Z,6.03
2023-01-13T00:42:52.903Z,6.15
2023-01-13T00:45:22.151Z,5.99
2023-01-13T00:47:50.141Z,5.95
2023-01-13T00:50:18.102Z,5.79
2023-01-13T00:52:46.114Z,5.79
2023-01-13T00:55:13.991Z,5.80
2023-01-13T00:57:41.943Z,5.92
2023-01-13T01:00:11.126Z,5.73
2023-01-13T01:02:40.455Z,5.83
2023-01-13T01:05:09.775Z,5.87
2023-01-13T01:07:37.770Z,5.74
2023-01-13T01:10:06.433Z,5.84
2023-01-13T01:12:35.904Z,5.67
2023-01-13T01:15:06.109Z,5.75
2023-01-13T01:17:34.043Z,5.72
2023-01-13T01:20:03.336Z,5.71
2023-01-13T01:22:31.475Z,5.62
2023-01-13T01:24:59.785Z,5.82
2023-01-13T01:27:27.750Z,5.81
2023-01-13T01:29:55.767Z,5.72
2023-01-13T01:32:23.825Z,5.73
2023-01-13T01:34:52.533Z,5.57
2023-01-13T01:37:21.941Z,5.52
2023-01-13T01:39:49.864Z,5.55
2023-01-13T01:42:35.581Z,5.68
2023-01-13T01:45:15.022Z,5.76
2023-01-13T01:47:44.417Z,5.71
2023-01-13T01:50:13.061Z,5.86
2023-01-13T01:52:45.563Z,5.95
2023-01-13T01:55:16.905Z,5.79
2023-01-13T01:57:50.228Z,5.57
2023-01-13T02:00:18.427Z,5.59
2023-01-13T02:02:49.186Z,5.65
2023-01-13T02:05:17.475Z,5.62
2023-01-13T02:07:50.556Z,5.62
2023-01-13T02:10:20.715Z,5.72
2023-01-13T02:12:49.049Z,5.77
2023-01-13T02:15:19.252Z,5.71
2023-01-13T02:18:10.530Z,5.68
2023-01-13T02:20:58.255Z,5.74
2023-01-13T02:24:13.551Z,5.53
2023-01-13T02:27:20.916Z,5.55
2023-01-13T02:30:26.653Z,5.56
2023-01-13T02:33:07.122Z,5.61
2023-01-13T02:35:41.741Z,5.63
2023-01-13T02:38:12.282Z,5.51
2023-01-13T02:40:46.924Z,5.59
2023-01-13T02:43:41.858Z,5.56
2023-01-13T02:46:16.439Z,5.50
2023-01-13T02:48:47.739Z,5.59
2023-01-13T02:51:18.741Z,5.39
2023-01-13T02:53:51.933Z,5.53
2023-01-13T02:56:22.547Z,5.43
2023-01-13T02:58:51.499Z,5.48
2023-01-13T03:01:21.353Z,5.65
2023-01-13T03:03:50.078Z,5.63
2023-01-13T03:06:33.039Z,5.83
2023-01-13T03:09:08.510Z,5.83
2023-01-13T03:11:46.919Z,5.58
2023-01-13T03:14:26.529Z,5.72
2023-01-13T03:17:07.117Z,5.59
2023-01-13T03:19:44.444Z,5.74
2023-01-13T03:22:27.536Z,5.50
2023-01-13T03:25:02.115Z,5.55
2023-01-13T03:27:36.061Z,5.67
2023-01-13T03:30:07.763Z,5.47
2023-01-13T03:32:40.280Z,5.58
2023-01-13T03:35:13.342Z,5.59
2023-01-13T03:37:46.797Z,5.56
2023-01-13T03:40:18.417Z,5.48
2023-01-13T03:43:03.096Z,5.10
2023-01-13T03:45:35.709Z,5.55
2023-01-13T03:48:10.039Z,5.55
2023-01-13T03:50:42.785Z,5.49
2023-01-13T03:53:13.782Z,5.50
2023-01-13T03:55:45.961Z,5.48
2023-01-13T03:58:17.370Z,5.36
2023-01-13T04:00:51.857Z,5.50
2023-01-13T04:03:26.406Z,5.43
2023-01-13T04:06:07.679Z,5.48
2023-01-13T04:08:37.720Z,5.46
2023-01-13T04:11:10.895Z,5.55
2023-01-13T04:13:43.548Z,5.54
2023-01-13T04:16:12.866Z,5.44
2023-01-13T04:18:42.186Z,5.42
2023-01-13T04:21:10.407Z,5.36
2023-01-13T04:23:38.359Z,5.45
2023-01-13T04:26:06.533Z,5.56
2023-01-13T04:28:35.001Z,5.48
2023-01-13T04:31:03.170Z,5.57
2023-01-13T04:33:31.167Z,5.49
2023-01-13T04:36:00.697Z,5.44
2023-01-13T04:38:28.676Z,5.39
2023-01-13T04:40:56.612Z,5.26
2023-01-13T04:43:24.473Z,5.42
2023-01-13T04:45:52.475Z,5.29
2023-01-13T04:48:20.544Z,5.27
2023-01-13T04:50:48.592Z,5.41
2023-01-13T04:53:17.936Z,5.39
2023-01-13T04:55:47.908Z,5.39
2023-01-13T04:58:15.886Z,5.30
2023-01-13T05:00:43.968Z,5.42
2023-01-13T05:03:11.965Z,5.46
2023-01-13T05:05:39.929Z,5.51
2023-01-13T05:08:09.068Z,5.41
2023-01-13T05:10:38.537Z,5.25
2023-01-13T05:13:23.964Z,5.16
2023-01-13T05:16:17.593Z,5.33
2023-01-13T05:18:45.789Z,5.10
2023-01-13T05:21:27.809Z,5.14
2023-01-13T05:24:13.716Z,5.18
2023-01-13T05:26:43.147Z,5.20
2023-01-13T05:29:11.133Z,5.21
2023-01-13T05:31:39.142Z,5.25
2023-01-13T05:34:07.090Z,5.33
2023-01-13T05:36:35.054Z,5.50
2023-01-13T05:39:03.696Z,5.44
2023-01-13T05:41:49.159Z,5.44
2023-01-13T05:44:18.477Z,5.49
2023-01-13T05:46:46.438Z,5.34
2023-01-13T05:49:14.502Z,5.39
2023-01-13T05:51:42.791Z,5.42
2023-01-13T05:54:10.673Z,5.52
2023-01-13T05:56:38.671Z,5.60
2023-01-13T05:59:07.206Z,5.53
2023-01-13T06:01:37.243Z,5.56
2023-01-13T06:04:05.584Z,5.49
2023-01-13T06:06:33.527Z,5.50
2023-01-13T06:09:01.543Z,5.56
2023-01-13T06:11:29.544Z,5.26
2023-01-13T06:13:57.524Z,5.45
2023-01-13T06:16:25.610Z,5.39
2023-01-13T06:18:55.181Z,5.24
2023-01-13T06:21:23.237Z,5.20
2023-01-13T06:23:51.177Z,5.08
2023-01-13T06:26:23.189Z,5.30
2023-01-13T06:28:51.350Z,5.35
2023-01-13T06:31:20.086Z,5.47
2023-01-13T06:33:51.869Z,5.31
2023-01-13T06:36:25.109Z,5.27
2023-01-13T06:38:58.020Z,5.16
2023-01-13T06:41:41.432Z,5.07
2023-01-13T06:44:09.389Z,5.07
2023-01-13T06:46:37.640Z,4.99
2023-01-13T06:49:05.726Z,5.02
2023-01-13T06:51:35.115Z,5.07
2023-01-13T06:54:03.308Z,5.12
2023-01-13T06:56:31.304Z,5.11
2023-01-13T06:58:59.311Z,5.10
2023-01-13T07:01:27.360Z,5.07
2023-01-13T07:03:55.363Z,5.06
2023-01-13T07:06:23.455Z,5.06
2023-01-13T07:08:52.736Z,5.02
2023-01-13T07:11:20.729Z,5.25
2023-01-13T07:14:05.708Z,5.40
2023-01-13T07:16:33.789Z,5.39
2023-01-13T07:19:01.874Z,5.44
2023-01-13T07:21:29.934Z,5.39
2023-01-13T07:23:59.350Z,5.17
2023-01-13T07:26:27.282Z,5.35
2023-01-13T07:28:55.182Z,5.46
2023-01-13T07:31:23.248Z,5.60
2023-01-13T07:33:51.438Z,5.50
2023-01-13T07:36:19.382Z,5.68
2023-01-13T07:38:47.311Z,5.90
2023-01-13T07:41:34.591Z,5.77
2023-01-13T07:44:05.339Z,5.69
2023-01-13T07:46:33.490Z,5.83
2023-01-13T07:49:01.477Z,5.79
2023-01-13T07:51:29.468Z,5.47
2023-01-13T07:53:57.538Z,5.20
2023-01-13T07:56:26.838Z,5.28
2023-01-13T07:58:54.789Z,5.41
2023-01-13T08:01:22.844Z,5.57
2023-01-13T08:03:51.016Z,5.65
2023-01-13T08:06:19.011Z,5.77
2023-01-13T08:08:46.953Z,5.93
2023-01-13T08:11:14.881Z,6.11
2023-01-13T08:13:44.410Z,5.84
2023-01-13T08:16:14.626Z,5.80
2023-01-13T08:18:43.085Z,5.50
2023-01-13T08:21:12.837Z,5.65
2023-01-13T08:23:41.923Z,5.70
2023-01-13T08:26:11.984Z,5.50
2023-01-13T08:28:41.326Z,5.49
2023-01-13T08:31:13.360Z,5.49
2023-01-13T08:33:41.644Z,5.60
2023-01-13T08:36:11.298Z,5.81
2023-01-13T08:38:41.793Z,6.18
2023-01-13T08:41:11.406Z,6.11
2023-01-13T08:43:39.830Z,6.20
2023-01-13T08:46:07.821Z,6.02
2023-01-13T08:48:37.479Z,6.07
2023-01-13T08:51:06.860Z,6.25
2023-01-13T08:53:34.906Z,6.29
2023-01-13T08:56:02.918Z,6.63
2023-01-13T08:58:30.820Z,6.67
2023-01-13T09:00:58.943Z,6.80
2023-01-13T09:03:26.992Z,6.85
2023-01-13T09:05:56.305Z,6.90
2023-01-13T09:08:24.645Z,6.79
2023-01-13T09:10:52.812Z,6.53
2023-01-13T09:13:21.927Z,6.81
2023-01-13T09:15:49.986Z,6.57
2023-01-13T09:18:18.051Z,6.46
2023-01-13T09:20:47.245Z,6.31
2023-01-13T09:23:16.775Z,6.27
2023-01-13T09:25:44.716Z,6.29
2023-01-13T09:28:12.723Z,6.23
2023-01-13T09:30:40.645Z,6.34
2023-01-13T09:33:26.205Z,6.43
2023-01-13T09:35:59.250Z,6.46
2023-01-13T09:38:28.788Z,6.54
2023-01-13T09:40:57.336Z,6.59
2023-01-13T09:43:48.272Z,6.75
2023-01-13T09:46:40.416Z,6.89
2023-01-13T09:49:16.066Z,7.06
2023-01-13T09:51:48.889Z,7.21
2023-01-13T09:54:24.041Z,7.40
2023-01-13T09:56:53.196Z,7.36
2023-01-13T09:59:21.250Z,7.17
2023-01-13T10:01:59.627Z,7.18
2023-01-13T10:04:28.044Z,7.10
2023-01-13T10:07:00.808Z,7.19
2023-01-13T10:09:35.260Z,7.40
2023-01-13T10:12:18.216Z,7.66
2023-01-13T10:14:53.947Z,7.20
2023-01-13T10:17:29.417Z,7.04
2023-01-13T10:20:04.430Z,7.04
2023-01-13T10:22:50.385Z,6.88
2023-01-13T10:25:32.797Z,6.93
2023-01-13T10:28:09.181Z,7.41
2023-01-13T10:30:40.269Z,7.77
2023-01-13T10:33:13.714Z,7.90
2023-01-13T10:35:57.592Z,7.96
2023-01-13T10:38:27.743Z,7.78
2023-01-13T10:40:59.248Z,8.08
2023-01-13T10:43:28.195Z,8.32
2023-01-13T10:46:07.015Z,7.32
2023-01-13T10:48:37.542Z,7.92
2023-01-13T10:51:27.102Z,7.86
2023-01-13T10:53:58.030Z,7.88
2023-01-13T10:56:29.760Z,7.61
2023-01-13T10:59:23.238Z,7.28
2023-01-13T11:02:01.206Z,7.87
2023-01-13T11:04:34.374Z,7.94
2023-01-13T11:07:03.607Z,7.38
2023-01-13T11:09:32.735Z,7.67
2023-01-13T11:12:03.269Z,7.61
2023-01-13T11:14:39.829Z,7.58
2023-01-13T11:17:23.764Z,7.65
2023-01-13T11:19:59.149Z,7.10
2023-01-13T11:22:32.302Z,7.23
2023-01-13T11:25:02.575Z,7.20
2023-01-13T11:27:41.320Z,6.82
2023-01-13T11:30:21.696Z,7.33
2023-01-13T11:33:06.176Z,7.46
2023-01-13T11:35:37.383Z,7.50
2023-01-13T11:38:13.231Z,7.36
2023-01-13T11:40:47.580Z,7.82
2023-01-13T11:43:25.237Z,8.13
2023-01-13T11:45:57.265Z,8.02
2023-01-13T11:48:28.610Z,8.18
2023-01-13T11:51:04.684Z,8.27
2023-01-13T11:53:46.615Z,7.86
2023-01-13T11:56:32.036Z,7.64
2023-01-13T11:59:21.212Z,7.73
2023-01-13T12:02:19.532Z,7.79
2023-01-13T12:04:56.544Z,7.96
2023-01-13T12:07:40.056Z,7.69
2023-01-13T12:10:14.661Z,7.91
2023-01-13T12:12:52.596Z,7.82
2023-01-13T12:15:53.848Z,7.53
2023-01-13T12:18:39.239Z,7.53
2023-01-13T12:21:30.644Z,7.86
2023-01-13T12:24:09.485Z,7.59
2023-01-13T12:26:42.723Z,7.96
2023-01-13T12:29:15.987Z,7.94
2023-01-13T12:31:46.809Z,8.20
2023-01-13T12:34:31.822Z,8.20
2023-01-13T12:37:09.612Z,8.25
2023-01-13T12:39:46.622Z,8.19
2023-01-13T12:42:38.178Z,6.89
2023-01-13T12:45:08.877Z,8.09
2023-01-13T12:47:40.041Z,7.82
2023-01-13T12:50:41.198Z,8.16
2023-01-13T12:53:35.255Z,7.38
2023-01-13T12:56:31.942Z,8.15
2023-01-13T12:59:34.166Z,8.04
2023-01-13T13:02:27.165Z,8.28
2023-01-13T13:04:58.353Z,8.04
2023-01-13T13:07:41.257Z,7.82
2023-01-13T13:10:19.610Z,7.52
2023-01-13T13:13:15.040Z,7.16
2023-01-13T13:15:43.660Z,7.18
2023-01-13T13:18:25.705Z,7.14
2023-01-13T13:20:58.487Z,7.11
2023-01-13T13:23:48.287Z,5.47
2023-01-13T13:26:37.199Z,6.73
2023-01-13T13:29:43.711Z,7.36
2023-01-13T13:32:33.880Z,7.43
2023-01-13T13:35:30.131Z,7.30
2023-01-13T13:38:37.582Z,7.24
2023-01-13T13:41:31.815Z,7.12
2023-01-13T13:44:21.647Z,6.96
2023-01-13T13:46:50.442Z,6.94
2023-01-13T13:49:21.219Z,7.13
2023-01-13T13:51:59.138Z,7.27
2023-01-13T13:54:29.134Z,7.30
2023-01-13T13:56:58.532Z,6.87
2023-01-13T13:59:30.619Z,7.04
2023-01-13T14:02:03.570Z,7.34
2023-01-13T14:04:35.567Z,7.35
2023-01-13T14:07:16.219Z,7.30
2023-01-13T14:09:49.046Z,7.40
2023-01-13T14:12:20.561Z,7.47
2023-01-13T14:14:50.788Z,7.42
2023-01-13T14:17:23.480Z,7.43
2023-01-13T14:19:59.112Z,7.64
2023-01-13T14:22:27.384Z,7.71
2023-01-13T14:24:58.619Z,7.68
2023-01-13T14:27:28.501Z,7.48
2023-01-13T14:29:59.100Z,7.38
2023-01-13T14:32:32.328Z,7.27
2023-01-13T14:35:00.466Z,7.38
2023-01-13T14:37:36.135Z,7.23
2023-01-13T14:40:06.782Z,7.31
2023-01-13T14:42:35.570Z,7.16
2023-01-13T14:45:03.897Z,7.14
2023-01-13T14:47:34.016Z,6.71
2023-01-13T14:50:05.124Z,7.16
2023-01-13T14:52:36.371Z,7.24
2023-01-13T14:55:26.047Z,7.24
2023-01-13T14:57:54.420Z,6.09
2023-01-13T15:00:25.325Z,7.37
2023-01-13T15:03:07.773Z,7.10
2023-01-13T15:05:47.698Z,7.41
2023-01-13T15:08:29.828Z,7.48
2023-01-13T15:11:03.556Z,7.57
2023-01-13T15:13:37.378Z,7.73
2023-01-13T15:16:08.093Z,7.69
2023-01-13T15:18:40.146Z,7.86
2023-01-13T15:21:08.483Z,7.71
2023-01-13T15:23:36.977Z,7.47
2023-01-13T15:26:25.645Z,7.59
2023-01-13T15:28:55.562Z,7.62
2023-01-13T15:31:24.735Z,7.00
2023-01-13T15:33:52.890Z,7.67
2023-01-13T15:36:27.225Z,7.84
2023-01-13T15:38:55.992Z,7.86
2023-01-13T15:41:43.900Z,7.80
2023-01-13T15:44:30.589Z,7.85
2023-01-13T15:47:00.408Z,7.95
2023-01-13T15:49:34.816Z,7.83
2023-01-13T15:52:04.486Z,7.74
2023-01-13T15:54:32.656Z,7.65
2023-01-13T15:57:02.303Z,7.50
2023-01-13T15:59:30.239Z,7.42
2023-01-13T16:01:58.187Z,7.36
2023-01-13T16:04:26.077Z,7.57
2023-01-13T16:06:54.004Z,7.53
2023-01-13T16:09:21.969Z,7.52
2023-01-13T16:11:49.901Z,7.54
2023-01-13T16:14:19.248Z,7.66
2023-01-13T16:16:47.169Z,7.84
2023-01-13T16:19:15.065Z,7.72
2023-01-13T16:21:43.010Z,7.68
2023-01-13T16:24:11.084Z,7.53
2023-01-13T16:26:39.035Z,7.70
2023-01-13T16:29:07.773Z,7.64
2023-01-13T16:31:37.480Z,7.76
2023-01-13T16:34:06.502Z,7.82
2023-01-13T16:36:36.767Z,7.47
2023-01-13T16:39:20.420Z,7.70
2023-01-13T16:41:48.349Z,7.50
2023-01-13T16:44:16.623Z,7.53
2023-01-13T16:46:47.379Z,7.72
2023-01-13T16:49:17.226Z,7.73
2023-01-13T16:51:45.750Z,7.68
2023-01-13T16:54:15.673Z,7.75
2023-01-13T16:56:44.441Z,7.81
2023-01-13T16:59:14.631Z,7.83
2023-01-13T17:01:45.977Z,7.87
2023-01-13T17:04:17.140Z,7.87
2023-01-13T17:06:52.250Z,7.80
2023-01-13T17:09:21.815Z,7.75
2023-01-13T17:11:50.204Z,7.87
2023-01-13T17:14:19.556Z,7.55
2023-01-13T17:16:49.099Z,7.22
2023-01-13T17:19:18.237Z,7.51
2023-01-13T17:21:47.182Z,7.48
2023-01-13T17:24:15.627Z,7.51
2023-01-13T17:26:47.248Z,7.60
2023-01-13T17:29:17.095Z,7.65
2023-01-13T17:31:45.731Z,7.60
2023-01-13T17:34:15.769Z,7.45
2023-01-13T17:36:44.033Z,7.64
2023-01-13T17:39:17.194Z,7.73
2023-01-13T17:41:45.362Z,7.73
2023-01-13T17:44:14.848Z,7.75
2023-01-13T17:46:43.168Z,7.85
2023-01-13T17:49:12.409Z,7.78
2023-01-13T17:51:42.202Z,7.74
2023-01-13T17:54:12.286Z,7.77
2023-01-13T17:56:40.950Z,7.72
2023-01-13T17:59:10.492Z,7.62
2023-01-13T18:01:39.782Z,7.69
2023-01-13T18:04:08.606Z,7.81
2023-01-13T18:06:36.736Z,7.16
2023-01-13T18:09:06.217Z,7.75
2023-01-13T18:11:34.266Z,7.39
2023-01-13T18:14:02.175Z,7.41
2023-01-13T18:16:32.174Z,7.45
2023-01-13T18:19:14.901Z,7.45
2023-01-13T18:22:00.719Z,7.25
2023-01-13T18:24:47.493Z,7.29
2023-01-13T18:27:23.642Z,7.31
2023-01-13T18:29:53.164Z,7.16
2023-01-13T18:32:21.930Z,7.19
2023-01-13T18:34:53.907Z,7.25
2023-01-13T18:37:26.880Z,7.09
2023-01-13T18:39:56.295Z,6.97
2023-01-13T18:42:41.856Z,7.13
2023-01-13T18:45:10.777Z,7.15
2023-01-13T18:47:57.299Z,6.79
2023-01-13T18:50:25.893Z,6.48
2023-01-13T18:52:54.379Z,6.80
2023-01-13T18:55:25.993Z,6.78
2023-01-13T18:57:54.214Z,6.57
2023-01-13T19:00:23.329Z,6.42
2023-01-13T19:05:35.605Z,6.75
2023-01-13T19:08:03.831Z,6.72
2023-01-13T19:10:33.211Z,6.77
2023-01-13T19:13:02.280Z,6.37
2023-01-13T19:15:30.297Z,6.29
2023-01-13T19:17:58.590Z,6.11
2023-01-13T19:20:26.624Z,6.06
2023-01-13T19:22:55.061Z,6.21
2023-01-13T19:25:23.123Z,6.18
2023-01-13T19:27:52.395Z,6.19
2023-01-13T19:30:20.678Z,6.20
2023-01-13T19:32:48.597Z,6.29
2023-01-13T19:35:18.497Z,6.18
2023-01-13T19:37:46.884Z,6.25
2023-01-13T19:40:15.126Z,6.24
2023-01-13T19:43:01.592Z,6.37
2023-01-13T19:45:33.930Z,6.44
2023-01-13T19:48:04.995Z,6.35
2023-01-13T19:50:36.265Z,6.26
2023-01-13T19:53:04.267Z,6.24
2023-01-13T19:55:32.678Z,6.45
2023-01-13T19:58:00.987Z,6.14
2023-01-13T20:00:30.349Z,5.96
2023-01-13T20:03:03.232Z,5.95
2023-01-13T20:05:31.512Z,5.98
2023-01-13T20:07:59.458Z,5.92
2023-01-13T20:10:30.294Z,5.64
2023-01-13T20:12:58.223Z,5.83
2023-01-13T20:15:26.175Z,5.77
2023-01-13T20:17:57.342Z,5.82
2023-01-13T20:20:27.429Z,5.75
2023-01-13T20:22:55.481Z,5.91
2023-01-13T20:25:23.438Z,5.55
2023-01-13T20:27:51.508Z,5.45
2023-01-13T20:30:19.621Z,5.67
2023-01-13T20:32:47.606Z,5.67
2023-01-13T20:35:17.199Z,5.62
2023-01-13T20:37:48.280Z,5.69
2023-01-13T20:40:18.394Z,5.76
2023-01-13T20:42:46.417Z,5.72
2023-01-13T20:45:17.628Z,5.42
2023-01-13T20:47:46.412Z,5.79
2023-01-13T20:50:17.352Z,5.76
2023-01-13T20:52:46.367Z,5.75
2023-01-13T20:55:14.516Z,5.59
2023-01-13T20:57:42.483Z,5.48
2023-01-13T21:00:11.773Z,5.55
2023-01-13T21:02:41.332Z,5.52
2023-01-13T21:05:09.687Z,5.40
2023-01-13T21:07:38.947Z,5.51
2023-01-13T21:10:07.956Z,4.74
2023-01-13T21:13:04.831Z,5.38
2023-01-13T21:15:32.768Z,5.40
2023-01-13T21:18:18.043Z,5.45
2023-01-13T21:20:46.001Z,5.28
2023-01-13T21:23:15.405Z,5.27
2023-01-13T21:25:43.414Z,5.18
2023-01-13T21:28:11.572Z,5.17
2023-01-13T21:30:40.290Z,5.21
2023-01-13T21:33:08.968Z,4.85
2023-01-13T21:35:39.910Z,5.01
2023-01-13T21:38:08.069Z,5.09
2023-01-13T21:40:37.359Z,5.10
2023-01-13T21:43:22.929Z,5.04
2023-01-13T21:46:08.066Z,5.04
2023-01-13T21:48:36.050Z,5.16
2023-01-13T21:51:04.008Z,5.10
2023-01-13T21:53:32.056Z,5.00
2023-01-13T21:56:01.431Z,5.07
2023-01-13T21:58:29.389Z,5.07
2023-01-13T22:00:57.382Z,5.24
2023-01-13T22:03:25.317Z,5.21
2023-01-13T22:05:56.859Z,5.18
2023-01-13T22:08:24.776Z,5.19
2023-01-13T22:10:57.811Z,5.29
2023-01-13T22:13:45.602Z,5.33
2023-01-13T22:16:14.291Z,5.42
2023-01-13T22:18:42.347Z,5.47
2023-01-13T22:21:11.055Z,5.44
2023-01-13T22:23:39.059Z,5.37
2023-01-13T22:26:08.982Z,5.30
2023-01-13T22:28:42.918Z,5.09
2023-01-13T22:31:12.248Z,4.95
2023-01-13T22:33:41.650Z,5.11
2023-01-13T22:36:10.560Z,5.08
2023-01-13T22:38:38.492Z,5.09
2023-01-13T22:41:08.044Z,5.00
2023-01-13T22:43:36.970Z,4.85
2023-01-13T22:46:10.798Z,4.69
2023-01-13T22:48:39.649Z,4.71
2023-01-13T22:51:08.809Z,4.80
2023-01-13T22:53:38.019Z,4.83
2023-01-13T22:56:06.983Z,4.89
2023-01-13T22:58:34.997Z,4.98
2023-01-13T23:01:12.200Z,5.12
2023-01-13T23:03:40.345Z,5.29
2023-01-13T23:06:08.312Z,5.17
2023-01-13T23:08:37.035Z,5.07
2023-01-13T23:11:07.874Z,5.03
2023-01-13T23:13:36.302Z,4.99
2023-01-13T23:16:05.042Z,5.10
2023-01-13T23:18:34.793Z,5.12
2023-01-13T23:21:07.099Z,5.04
2023-01-13T23:23:35.691Z,4.84
2023-01-13T23:26:05.088Z,4.82
2023-01-13T23:28:34.186Z,5.08
2023-01-13T23:31:06.405Z,4.91
2023-01-13T23:33:35.859Z,4.90
2023-01-13T23:36:06.915Z,4.83
2023-01-13T23:38:35.205Z,4.96
2023-01-13T23:41:06.972Z,5.03
2023-01-13T23:43:35.133Z,4.90
2023-01-13T23:46:04.441Z,4.72
2023-01-13T23:48:32.830Z,4.73
2023-01-13T23:51:03.913Z,4.66
2023-01-13T23:53:33.650Z,4.72
2023-01-13T23:56:03.143Z,4.81
2023-01-13T23:58:31.651Z,4.62
